createdAt,value
2022-09-04T00:00:10.341Z,25.25
2022-09-04T00:02:59.212Z,24.58
2022-09-04T00:05:32.561Z,22.25
2022-09-04T00:08:24.579Z,20.55
2022-09-04T00:10:58.077Z,21.98
2022-09-04T00:13:32.966Z,19.60
2022-09-04T00:16:09.661Z,26.38
2022-09-04T00:18:42.975Z,21.13
2022-09-04T00:21:18.465Z,19.98
2022-09-04T00:23:53.807Z,21.25
2022-09-04T00:26:42.293Z,21.40
2022-09-04T00:29:19.584Z,18.73
2022-09-04T00:31:59.195Z,26.95
2022-09-04T00:34:44.601Z,20.05
2022-09-04T00:37:18.752Z,18.35
2022-09-04T00:39:55.044Z,20.65
2022-09-04T00:42:37.748Z,21.15
2022-09-04T00:45:24.404Z,19.77
2022-09-04T00:48:25.650Z,22.40
2022-09-04T00:51:11.702Z,22.20
2022-09-04T00:54:09.434Z,21.30
2022-09-04T00:57:14.266Z,19.67
2022-09-04T01:00:07.527Z,23.73
2022-09-04T01:02:58.888Z,21.67
2022-09-04T01:05:41.190Z,19.48
2022-09-04T01:08:23.779Z,17.65
2022-09-04T01:11:05.740Z,19.65
2022-09-04T01:13:41.883Z,21.00
2022-09-04T01:16:16.717Z,20.65
2022-09-04T01:18:56.231Z,20.27
2022-09-04T01:24:54.368Z,16.20
2022-09-04T01:27:31.668Z,18.27
2022-09-04T01:30:08.320Z,19.58
2022-09-04T01:32:46.948Z,17.45
2022-09-04T01:35:35.519Z,17.67
2022-09-04T01:38:17.006Z,18.30
2022-09-04T01:40:50.886Z,18.05
2022-09-04T01:43:22.908Z,15.32
2022-09-04T01:46:22.327Z,21.50
2022-09-04T01:48:56.466Z,18.15
2022-09-04T01:51:34.355Z,17.63
2022-09-04T01:54:13.843Z,17.88
2022-09-04T01:56:49.967Z,17.45
2022-09-04T01:59:27.996Z,18.42
2022-09-04T02:02:03.580Z,19.73
2022-09-04T02:04:41.259Z,20.23
2022-09-04T02:07:30.124Z,15.55
2022-09-04T02:10:08.341Z,17.45
2022-09-04T02:12:48.096Z,20.88
2022-09-04T02:15:33.579Z,19.98
2022-09-04T02:18:15.125Z,20.52
2022-09-04T02:20:52.019Z,14.93
2022-09-04T02:23:30.993Z,23.63
2022-09-04T02:26:09.390Z,19.27
2022-09-04T02:28:48.669Z,17.80
2022-09-04T02:31:30.158Z,16.90
2022-09-04T02:34:07.562Z,16.60
2022-09-04T02:36:44.123Z,17.52
2022-09-04T02:39:30.189Z,18.00
2022-09-04T02:42:10.880Z,16.80
2022-09-04T02:44:48.250Z,19.52
2022-09-04T02:47:29.225Z,16.08
2022-09-04T02:50:04.593Z,17.35
2022-09-04T02:52:46.317Z,19.45
2022-09-04T02:55:32.378Z,16.92
2022-09-04T02:58:15.827Z,14.60
2022-09-04T03:00:51.357Z,17.23
2022-09-04T03:03:28.843Z,17.40
2022-09-04T03:06:10.238Z,16.52
2022-09-04T03:08:46.078Z,17.40
2022-09-04T03:11:22.286Z,22.60
2022-09-04T03:13:54.434Z,19.55
2022-09-04T03:16:29.436Z,18.00
2022-09-04T03:19:18.568Z,18.52
2022-09-04T03:21:54.634Z,17.13
2022-09-04T03:24:27.723Z,16.98
2022-09-04T03:27:00.869Z,22.20
2022-09-04T03:29:39.487Z,19.38
2022-09-04T03:32:17.201Z,18.30
2022-09-04T03:34:55.171Z,22.25
2022-09-04T03:37:44.284Z,20.45
2022-09-04T03:40:22.914Z,21.38
2022-09-04T03:43:08.149Z,29.40
2022-09-04T03:45:50.605Z,17.30
2022-09-04T03:48:35.884Z,18.90
2022-09-04T03:51:17.141Z,17.08
2022-09-04T03:53:53.706Z,19.15
2022-09-04T03:56:37.676Z,16.77
2022-09-04T04:01:48.605Z,20.88
2022-09-04T04:04:36.261Z,19.77
2022-09-04T04:07:14.099Z,17.10
2022-09-04T04:10:00.985Z,21.00
2022-09-04T04:12:56.914Z,21.13
2022-09-04T04:15:34.598Z,18.58
2022-09-04T04:18:39.133Z,19.30
2022-09-04T04:24:19.002Z,19.15
2022-09-04T04:26:59.822Z,32.13
2022-09-04T04:29:45.799Z,23.83
2022-09-04T04:32:26.510Z,15.95
2022-09-04T04:35:11.636Z,17.23
2022-09-04T04:37:53.515Z,18.15
2022-09-04T04:40:41.314Z,14.48
2022-09-04T04:43:18.634Z,13.63
2022-09-04T04:45:55.710Z,17.95
2022-09-04T04:48:54.265Z,12.60
2022-09-04T04:51:44.032Z,16.88
2022-09-04T04:54:28.647Z,14.43
2022-09-04T04:57:09.867Z,11.13
2022-09-04T04:59:45.054Z,16.73
2022-09-04T05:02:24.109Z,12.23
2022-09-04T05:05:03.477Z,11.65
2022-09-04T05:07:41.798Z,13.38
2022-09-04T05:10:20.187Z,12.55
2022-09-04T05:13:12.814Z,11.20
2022-09-04T05:16:08.010Z,11.88
2022-09-04T05:18:48.251Z,13.77
2022-09-04T05:21:23.864Z,9.60
2022-09-04T05:23:59.808Z,9.35
2022-09-04T05:26:37.868Z,8.50
2022-09-04T05:29:14.794Z,9.30
2022-09-04T05:31:50.423Z,10.95
2022-09-04T05:34:29.261Z,8.60
2022-09-04T05:37:08.505Z,10.02
2022-09-04T05:39:50.316Z,9.68
2022-09-04T05:42:42.996Z,10.80
2022-09-04T05:45:23.190Z,13.20
2022-09-04T05:48:03.482Z,10.90
2022-09-04T05:50:51.903Z,11.23
2022-09-04T05:53:42.091Z,9.80
2022-09-04T05:56:29.006Z,9.75
2022-09-04T05:59:12.794Z,10.40
2022-09-04T06:02:04.622Z,23.92
2022-09-04T06:04:56.950Z,10.65
2022-09-04T06:07:32.893Z,9.13
2022-09-04T06:10:12.566Z,6.95
2022-09-04T06:13:10.817Z,7.90
2022-09-04T06:15:51.177Z,10.48
2022-09-04T06:18:40.934Z,6.28
2022-09-04T06:21:28.236Z,7.95
2022-09-04T06:24:10.642Z,5.72
2022-09-04T06:26:58.036Z,7.03
2022-09-04T06:29:43.039Z,3.72
2022-09-04T06:32:32.684Z,4.55
2022-09-04T06:35:33.543Z,7.80
2022-09-04T06:38:18.370Z,6.20
2022-09-04T06:41:04.329Z,8.40
2022-09-04T06:43:41.688Z,5.53
2022-09-04T06:46:23.726Z,30.77
2022-09-04T06:49:00.800Z,5.40
2022-09-04T06:51:44.567Z,5.63
2022-09-04T06:57:04.021Z,5.78
2022-09-04T06:59:47.722Z,6.93
2022-09-04T07:05:05.150Z,6.43
2022-09-04T07:07:45.162Z,5.97
2022-09-04T07:10:17.666Z,6.95
2022-09-04T07:13:30.003Z,11.53
2022-09-04T07:16:16.622Z,6.75
2022-09-04T07:19:11.758Z,6.15
2022-09-04T07:21:52.373Z,7.05
2022-09-04T07:24:46.208Z,4.65
2022-09-04T07:27:27.010Z,5.63
2022-09-04T07:30:03.063Z,8.32
2022-09-04T07:32:39.244Z,6.20
2022-09-04T07:35:16.627Z,7.18
2022-09-04T07:37:58.762Z,4.80
2022-09-04T07:40:38.227Z,5.10
2022-09-04T07:43:30.182Z,4.50
2022-09-04T07:46:09.723Z,8.07
2022-09-04T07:48:45.277Z,5.72
2022-09-04T07:51:17.825Z,5.45
2022-09-04T07:54:22.920Z,9.90
2022-09-04T07:57:13.545Z,4.90
2022-09-04T08:00:02.875Z,4.20
2022-09-04T08:03:01.831Z,4.80
2022-09-04T08:05:33.365Z,6.32
2022-09-04T08:08:33.768Z,7.93
2022-09-04T08:11:33.564Z,5.18
2022-09-04T08:14:22.722Z,3.38
2022-09-04T08:17:05.672Z,4.05
2022-09-04T08:19:46.059Z,5.40
2022-09-04T08:22:31.316Z,4.68
2022-09-04T08:25:11.351Z,3.17
2022-09-04T08:28:00.116Z,5.57
2022-09-04T08:30:36.958Z,6.57
2022-09-04T08:33:43.473Z,6.20
2022-09-04T08:36:24.178Z,3.03
2022-09-04T08:39:08.592Z,4.85
2022-09-04T08:42:17.190Z,6.40
2022-09-04T08:45:24.855Z,5.72
2022-09-04T08:48:21.069Z,4.38
2022-09-04T08:51:40.293Z,4.15
2022-09-04T08:54:36.217Z,3.33
2022-09-04T08:57:29.992Z,4.18
2022-09-04T09:03:23.066Z,4.47
2022-09-04T09:06:40.053Z,4.22
2022-09-04T09:09:51.219Z,3.15
2022-09-04T09:12:53.934Z,5.57
2022-09-04T09:15:46.046Z,5.07
2022-09-04T09:18:35.873Z,3.78
2022-09-04T09:21:10.564Z,4.57
2022-09-04T09:23:46.557Z,3.60
2022-09-04T09:26:26.678Z,3.92
2022-09-04T09:29:32.081Z,2.88
2022-09-04T09:32:41.464Z,3.65
2022-09-04T09:35:59.904Z,3.42
2022-09-04T09:39:00.170Z,4.03
2022-09-04T09:42:14.103Z,6.03
2022-09-04T09:45:15.423Z,6.45
2022-09-04T09:48:20.727Z,3.20
2022-09-04T09:51:35.585Z,3.60
2022-09-04T09:54:31.960Z,4.57
2022-09-04T09:57:40.507Z,2.80
2022-09-04T10:00:25.467Z,3.42
2022-09-04T10:03:28.550Z,5.82
2022-09-04T10:06:49.367Z,6.10
2022-09-04T10:09:55.468Z,5.05
2022-09-04T10:13:10.128Z,4.70
2022-09-04T10:16:20.597Z,5.07
2022-09-04T10:19:16.841Z,4.35
2022-09-04T10:22:27.517Z,8.35
2022-09-04T10:25:25.072Z,4.28
2022-09-04T10:28:33.432Z,4.63
2022-09-04T10:31:47.841Z,3.15
2022-09-04T10:35:03.559Z,4.10
2022-09-04T10:37:53.410Z,4.45
2022-09-04T10:40:50.655Z,20.08
2022-09-04T10:44:00.288Z,3.00
2022-09-04T10:46:38.806Z,4.10
2022-09-04T10:49:37.604Z,2.75
2022-09-04T10:52:37.086Z,3.03
2022-09-04T10:55:37.044Z,4.72
2022-09-04T10:58:29.361Z,2.30
2022-09-04T11:01:23.643Z,3.45
2022-09-04T11:04:22.836Z,3.65
2022-09-04T11:07:10.620Z,4.60
2022-09-04T11:10:09.013Z,3.72
2022-09-04T11:13:17.075Z,2.42
2022-09-04T11:16:01.669Z,3.13
2022-09-04T11:19:10.175Z,2.90
2022-09-04T11:22:25.088Z,2.70
2022-09-04T11:25:21.129Z,3.30
2022-09-04T11:28:09.384Z,3.85
2022-09-04T11:30:57.735Z,2.28
2022-09-04T11:34:14.456Z,3.63
2022-09-04T11:37:40.654Z,4.20
2022-09-04T11:40:46.395Z,2.75
2022-09-04T11:43:59.741Z,3.28
2022-09-04T11:46:52.840Z,2.53
2022-09-04T11:49:44.267Z,2.58
2022-09-04T11:52:23.005Z,3.25
2022-09-04T11:55:17.161Z,2.90
2022-09-04T11:57:59.798Z,2.72
2022-09-04T12:03:40.263Z,3.97
2022-09-04T12:06:37.501Z,4.13
2022-09-04T12:09:41.955Z,3.78
2022-09-04T12:12:40.675Z,4.20
2022-09-04T12:15:36.379Z,2.92
2022-09-04T12:21:43.136Z,2.85
2022-09-04T12:24:46.740Z,2.13
2022-09-04T12:28:19.372Z,2.03
2022-09-04T12:31:01.980Z,6.10
2022-09-04T12:33:49.553Z,3.47
2022-09-04T12:36:54.524Z,4.07
2022-09-04T12:40:03.978Z,2.65
2022-09-04T12:42:38.887Z,3.22
2022-09-04T12:45:21.076Z,2.75
2022-09-04T12:47:58.843Z,2.80
2022-09-04T12:50:37.501Z,2.53
2022-09-04T12:53:40.413Z,2.63
2022-09-04T12:59:15.948Z,2.65
2022-09-04T13:02:00.967Z,7.32
2022-09-04T13:04:39.373Z,6.65
2022-09-04T13:07:30.067Z,5.43
2022-09-04T13:10:16.593Z,2.45
2022-09-04T13:12:57.264Z,6.65
2022-09-04T13:15:49.884Z,4.38
2022-09-04T13:18:37.283Z,4.38
2022-09-04T13:21:19.769Z,6.15
2022-09-04T13:24:02.121Z,2.80
2022-09-04T13:26:48.113Z,2.22
2022-09-04T13:29:25.448Z,3.15
2022-09-04T13:32:10.388Z,3.95
2022-09-04T13:34:58.720Z,2.45
2022-09-04T13:37:34.250Z,2.88
2022-09-04T13:40:38.668Z,2.38
2022-09-04T13:43:46.899Z,3.95
2022-09-04T13:46:19.563Z,3.30
2022-09-04T13:48:54.389Z,4.97
2022-09-04T13:51:29.823Z,1.95
2022-09-04T13:54:08.412Z,2.40
2022-09-04T13:56:44.000Z,4.43
2022-09-04T13:59:20.713Z,2.40
2022-09-04T14:01:55.042Z,5.15
2022-09-04T14:04:28.493Z,2.10
2022-09-04T14:07:07.096Z,2.45
2022-09-04T14:09:43.065Z,2.70
2022-09-04T14:12:23.391Z,6.10
2022-09-04T14:15:34.096Z,3.80
2022-09-04T14:18:19.044Z,3.35
2022-09-04T14:21:01.442Z,2.22
2022-09-04T14:23:48.144Z,2.45
2022-09-04T14:26:30.203Z,3.95
2022-09-04T14:29:09.170Z,4.65
2022-09-04T14:31:49.049Z,3.95
2022-09-04T14:34:33.941Z,17.42
2022-09-04T14:37:18.751Z,5.05
2022-09-04T14:39:50.659Z,3.67
2022-09-04T14:42:47.056Z,4.25
2022-09-04T14:45:31.811Z,2.63
2022-09-04T14:48:07.001Z,2.28
2022-09-04T14:50:50.679Z,2.03
2022-09-04T14:53:27.561Z,2.10
2022-09-04T14:56:33.026Z,4.30
2022-09-04T14:59:12.446Z,3.67
2022-09-04T15:02:14.869Z,1.70
2022-09-04T15:05:13.758Z,5.65
2022-09-04T15:07:56.739Z,6.93
2022-09-04T15:10:33.129Z,3.65
2022-09-04T15:13:35.415Z,3.38
2022-09-04T15:16:21.024Z,4.72
2022-09-04T15:18:59.233Z,4.20
2022-09-04T15:21:39.017Z,2.20
2022-09-04T15:24:18.109Z,3.22
2022-09-04T15:26:55.862Z,3.22
2022-09-04T15:29:29.933Z,3.60
2022-09-04T15:32:09.343Z,4.88
2022-09-04T15:34:43.180Z,2.15
2022-09-04T15:37:22.275Z,8.57
2022-09-04T15:40:02.327Z,4.72
2022-09-04T15:42:40.130Z,5.05
2022-09-04T15:45:18.375Z,3.80
2022-09-04T15:48:09.311Z,4.82
2022-09-04T15:50:51.506Z,4.97
2022-09-04T15:53:27.633Z,4.77
2022-09-04T15:56:29.842Z,3.17
2022-09-04T15:59:06.101Z,3.60
2022-09-04T16:01:44.692Z,7.60
2022-09-04T16:04:23.389Z,8.02
2022-09-04T16:06:59.062Z,6.57
2022-09-04T16:09:35.043Z,4.00
2022-09-04T16:12:11.339Z,5.82
2022-09-04T16:14:45.585Z,4.18
2022-09-04T16:17:21.031Z,6.30
2022-09-04T16:20:00.852Z,5.47
2022-09-04T16:22:42.160Z,7.35
2022-09-04T16:25:24.359Z,8.18
2022-09-04T16:28:02.506Z,5.07
2022-09-04T16:30:42.896Z,4.38
2022-09-04T16:33:28.247Z,3.67
2022-09-04T16:36:03.374Z,4.05
2022-09-04T16:38:40.821Z,5.35
2022-09-04T16:41:15.904Z,7.30
2022-09-04T16:44:12.038Z,6.47
2022-09-04T16:46:56.497Z,6.97
2022-09-04T16:49:32.555Z,6.40
2022-09-04T16:52:22.149Z,21.02
2022-09-04T16:54:55.461Z,29.15
2022-09-04T17:00:03.399Z,10.27
2022-09-04T17:05:17.925Z,25.90
2022-09-04T17:07:53.736Z,58.22
2022-09-04T17:10:36.660Z,29.25
2022-09-04T17:13:13.203Z,34.70
2022-09-04T17:15:53.678Z,28.33
2022-09-04T17:18:25.408Z,40.22
2022-09-04T17:24:34.820Z,31.67
2022-09-04T17:28:55.742Z,43.95
2022-09-04T17:29:18.571Z,28.65
2022-09-04T17:29:53.314Z,37.97
2022-09-04T17:33:58.454Z,32.75
2022-09-04T17:40:37.664Z,12.55
2022-09-04T17:40:50.563Z,15.55
2022-09-04T17:41:36.136Z,10.98
2022-09-04T17:44:25.581Z,17.63
2022-09-04T17:47:09.604Z,10.70
2022-09-04T17:49:45.958Z,12.10
2022-09-04T17:52:27.399Z,15.60
2022-09-04T17:55:03.378Z,9.02
2022-09-04T17:57:50.827Z,12.35
2022-09-04T18:00:22.086Z,12.45
2022-09-04T18:02:59.385Z,15.43
2022-09-04T18:05:34.961Z,11.90
2022-09-04T18:08:16.514Z,12.43
2022-09-04T18:10:53.817Z,7.80
2022-09-04T18:13:37.724Z,9.57
2022-09-04T18:16:19.653Z,14.30
2022-09-04T18:18:54.456Z,9.10
2022-09-04T18:21:28.778Z,11.25
2022-09-04T18:24:03.617Z,15.27
2022-09-04T18:26:41.454Z,12.27
2022-09-04T18:33:39.885Z,18.55
2022-09-04T18:37:12.133Z,17.02
2022-09-04T18:37:21.673Z,12.00
2022-09-04T18:38:42.179Z,14.50
2022-09-04T18:50:20.581Z,17.08
2022-09-04T18:50:28.624Z,16.25
2022-09-04T18:50:36.089Z,18.00
2022-09-04T18:50:43.761Z,23.02
2022-09-04T18:53:14.897Z,17.00
2022-09-04T18:55:47.434Z,13.27
2022-09-04T18:58:47.064Z,14.20
2022-09-04T19:01:27.380Z,14.60
2022-09-04T19:03:58.713Z,17.55
2022-09-04T19:06:34.586Z,14.10
2022-09-04T19:09:13.369Z,14.02
2022-09-04T19:11:49.040Z,18.33
2022-09-04T19:14:22.101Z,21.42
2022-09-04T19:16:56.203Z,16.35
2022-09-04T19:19:32.868Z,16.75
2022-09-04T19:22:12.103Z,19.45
2022-09-04T19:24:48.950Z,15.75
2022-09-04T19:27:28.197Z,24.75
2022-09-04T19:30:18.047Z,25.38
2022-09-04T19:33:09.971Z,15.15
2022-09-04T19:35:47.828Z,16.30
2022-09-04T19:44:13.571Z,19.92
2022-09-04T19:46:07.640Z,20.08
2022-09-04T19:46:15.050Z,17.55
2022-09-04T19:47:28.688Z,17.67
2022-09-04T19:53:21.885Z,24.48
2022-09-04T19:53:33.441Z,26.10
2022-09-04T19:56:08.547Z,16.42
2022-09-04T19:58:44.069Z,14.65
2022-09-04T20:01:17.114Z,16.48
2022-09-04T20:03:51.826Z,16.00
2022-09-04T20:06:27.650Z,16.70
2022-09-04T20:09:03.660Z,13.70
2022-09-04T20:11:40.961Z,14.55
2022-09-04T20:14:23.146Z,14.07
2022-09-04T20:17:10.017Z,17.40
2022-09-04T20:19:45.788Z,13.77
2022-09-04T20:22:28.337Z,10.68
2022-09-04T20:25:31.714Z,10.52
2022-09-04T20:28:15.429Z,15.10
2022-09-04T20:33:22.910Z,76.95
2022-09-04T20:38:30.559Z,15.18
2022-09-04T20:41:09.230Z,14.13
2022-09-04T20:43:48.791Z,13.02
2022-09-04T20:51:58.348Z,13.57
2022-09-04T20:52:56.058Z,10.18
2022-09-04T20:52:59.379Z,9.10
2022-09-04T20:55:33.806Z,9.55
2022-09-04T21:02:02.506Z,8.32
2022-09-04T21:03:23.726Z,9.88
2022-09-04T21:04:42.436Z,11.43
2022-09-04T21:07:20.588Z,9.20
2022-09-04T21:10:00.130Z,9.85
2022-09-04T21:12:37.381Z,12.00
2022-09-04T21:15:18.357Z,8.40
2022-09-04T21:18:18.698Z,13.77
2022-09-04T21:21:22.268Z,13.43
2022-09-04T21:24:13.082Z,15.68
2022-09-04T21:27:07.575Z,12.00
2022-09-04T21:29:53.036Z,9.63
2022-09-04T21:32:39.483Z,12.35
2022-09-04T21:35:17.123Z,16.83
2022-09-04T21:37:50.803Z,12.35
2022-09-04T21:40:52.525Z,9.98
2022-09-04T21:43:47.448Z,13.38
2022-09-04T21:46:34.380Z,8.82
2022-09-04T21:49:26.344Z,11.43
2022-09-04T21:52:17.069Z,13.75
2022-09-04T21:57:28.837Z,7.80
2022-09-04T22:02:40.290Z,8.05
2022-09-04T22:02:47.934Z,9.80
2022-09-04T22:04:47.477Z,9.48
2022-09-04T22:11:00.908Z,9.18
2022-09-04T22:13:28.961Z,11.93
2022-09-04T22:13:53.121Z,9.75
2022-09-04T22:16:49.006Z,10.18
2022-09-04T22:19:50.112Z,9.00
2022-09-04T22:22:43.234Z,12.35
2022-09-04T22:25:33.837Z,10.67
2022-09-04T22:28:37.230Z,9.57
2022-09-04T22:31:29.644Z,8.07
2022-09-04T22:34:28.592Z,11.07
2022-09-04T22:37:30.868Z,8.23
2022-09-04T22:40:18.846Z,10.13
2022-09-04T22:42:56.638Z,11.65
2022-09-04T22:45:46.456Z,8.10
2022-09-04T22:48:37.789Z,12.25
2022-09-04T22:51:22.026Z,9.05
2022-09-04T22:54:16.227Z,10.32
2022-09-04T22:56:54.969Z,13.10
2022-09-04T22:59:56.180Z,11.77
2022-09-04T23:03:14.130Z,9.25
2022-09-04T23:06:08.837Z,10.85
2022-09-04T23:13:46.379Z,8.07
2022-09-04T23:13:56.230Z,11.45
2022-09-04T23:16:00.353Z,11.33
2022-09-04T23:24:10.078Z,6.85
2022-09-04T23:26:35.202Z,6.75
2022-09-04T23:26:47.562Z,8.05
2022-09-04T23:28:27.916Z,8.57
2022-09-04T23:31:13.003Z,8.10
2022-09-04T23:34:06.367Z,8.70
2022-09-04T23:36:57.810Z,8.07
2022-09-04T23:39:53.353Z,9.93
2022-09-04T23:42:41.835Z,7.30
2022-09-04T23:45:30.640Z,9.93
2022-09-04T23:48:23.564Z,8.10
2022-09-04T23:51:00.849Z,7.82
2022-09-04T23:53:37.763Z,13.30
2022-09-04T23:56:22.875Z,10.93
2022-09-04T23:59:22.589Z,8.07
